Time;durP1;ratioP1;P1;durP2;ratioP2;P2;SDS_P1;SDS_P2;PMS_P1;PMS_P2;Temp;Humidity;BMP_temperature;BMP_pressure;BME280_temperature;BME280_humidity;BME280_pressure;Samples;Min_cycle;Max_cycle;Signal;HPM_P1;HPM_P2
2023/06/24 00:00:37;;;;;;;5.32;4.20;;;19.70;99.90;;;;;;5038030;28;20029;-69
2023/06/24 00:03:03;;;;;;;8.07;4.50;;;19.60;99.90;;;;;;5037865;28;20478;-69
2023/06/24 00:05:28;;;;;;;6.63;4.72;;;19.60;99.90;;;;;;5038050;28;20022;-69
2023/06/24 00:07:56;;;;;;;6.50;4.35;;;19.50;99.90;;;;;;5037981;28;20013;-69
2023/06/24 00:10:22;;;;;;;5.97;4.60;;;19.50;99.90;;;;;;5037970;28;20053;-69
2023/06/24 00:12:48;;;;;;;7.85;3.90;;;19.50;99.90;;;;;;5037546;28;20044;-69
2023/06/24 00:15:14;;;;;;;6.75;4.75;;;19.50;99.90;;;;;;5037160;28;20029;-69
2023/06/24 00:17:40;;;;;;;6.28;5.22;;;19.40;99.90;;;;;;5036198;28;20355;-69
2023/06/24 00:20:10;;;;;;;8.35;4.68;;;19.40;99.90;;;;;;5037440;28;20129;-69
2023/06/24 00:22:43;;;;;;;5.40;4.43;;;19.30;99.90;;;;;;5028888;28;20029;-69
2023/06/24 00:25:09;;;;;;;7.47;4.07;;;19.40;99.90;;;;;;5037261;28;20022;-69
2023/06/24 00:27:35;;;;;;;6.40;4.53;;;19.20;99.90;;;;;;5037747;28;20474;-69
2023/06/24 00:30:01;;;;;;;5.00;4.00;;;19.30;99.90;;;;;;5037336;28;20045;-69
2023/06/24 00:32:26;;;;;;;7.70;4.40;;;19.20;99.90;;;;;;5037396;28;20405;-69
2023/06/24 00:34:52;;;;;;;8.38;4.85;;;19.20;99.90;;;;;;5037334;28;20033;-69
2023/06/24 00:37:18;;;;;;;5.95;4.25;;;19.20;99.90;;;;;;5030467;28;20136;-69
2023/06/24 00:39:44;;;;;;;6.40;4.40;;;19.30;99.90;;;;;;5036075;28;20025;-69
2023/06/24 00:42:10;;;;;;;6.10;4.65;;;19.30;99.90;;;;;;5037431;28;20037;-69
2023/06/24 00:44:37;;;;;;;7.68;4.90;;;19.30;99.90;;;;;;5037185;28;20020;-69
2023/06/24 00:47:03;;;;;;;5.90;4.20;;;19.20;99.90;;;;;;5037120;28;20021;-69
2023/06/24 00:49:29;;;;;;;5.47;3.75;;;19.10;99.90;;;;;;5036972;28;20067;-69
2023/06/24 00:51:55;;;;;;;5.40;4.35;;;19.10;99.90;;;;;;5035942;28;20033;-69
2023/06/24 00:54:21;;;;;;;7.78;4.05;;;19.00;99.90;;;;;;5035612;28;20033;-69
2023/06/24 00:56:47;;;;;;;6.65;4.30;;;19.10;99.90;;;;;;5037020;28;20453;-69
2023/06/24 00:59:15;;;;;;;8.15;4.95;;;19.10;99.90;;;;;;5036052;28;20076;-69
2023/06/24 01:01:41;;;;;;;6.68;5.18;;;19.10;99.90;;;;;;5036978;28;20052;-69
2023/06/24 01:04:08;;;;;;;6.93;4.97;;;19.10;99.90;;;;;;5036490;28;20477;-69
2023/06/24 01:06:36;;;;;;;6.63;4.57;;;19.00;99.90;;;;;;5036875;28;20108;-69
2023/06/24 01:09:02;;;;;;;7.50;4.47;;;19.00;99.90;;;;;;5036655;28;20036;-69
2023/06/24 01:11:29;;;;;;;8.00;4.20;;;18.90;99.90;;;;;;5027886;28;20034;-69
2023/06/24 01:13:55;;;;;;;7.03;5.05;;;18.90;99.90;;;;;;5035789;28;20017;-70
2023/06/24 01:16:46;;;;;;;7.22;5.00;;;18.80;99.90;;;;;;5036897;28;20022;-69
2023/06/24 01:19:40;;;;;;;5.75;4.28;;;18.80;99.90;;;;;;5024020;28;20059;-69
2023/06/24 01:22:20;;;;;;;6.72;4.88;;;18.80;99.90;;;;;;5036774;28;20171;-69
2023/06/24 01:25:24;;;;;;;7.57;4.50;;;18.70;99.90;;;;;;5036704;28;20025;-69
2023/06/24 01:27:59;;;;;;;6.72;4.70;;;18.70;99.90;;;;;;5029797;28;20033;-69
2023/06/24 01:30:42;;;;;;;10.10;5.10;;;18.60;99.90;;;;;;5036523;28;20025;-69
2023/06/24 01:33:14;;;;;;;6.70;5.15;;;18.60;99.90;;;;;;5036153;28;20030;-69
2023/06/24 01:35:42;;;;;;;7.43;4.95;;;18.50;99.90;;;;;;5036643;28;20025;-69
2023/06/24 01:38:14;;;;;;;6.47;4.30;;;18.50;99.90;;;;;;5036411;28;20030;-69
2023/06/24 01:40:44;;;;;;;6.35;5.15;;;18.50;99.90;;;;;;5036550;28;20025;-69
2023/06/24 01:43:13;;;;;;;8.40;5.28;;;18.50;99.90;;;;;;5036105;28;20040;-69
2023/06/24 01:45:45;;;;;;;9.55;4.75;;;18.50;99.90;;;;;;5036533;28;20061;-69
2023/06/24 01:48:23;;;;;;;6.53;5.72;;;18.50;99.90;;;;;;5036092;28;20021;-69
2023/06/24 01:50:57;;;;;;;6.53;4.97;;;18.40;99.90;;;;;;5036283;28;20013;-69
2023/06/24 01:53:26;;;;;;;8.98;5.13;;;18.40;99.90;;;;;;5026399;28;20106;-69
2023/06/24 01:55:54;;;;;;;8.93;4.85;;;18.40;99.90;;;;;;5035966;28;20112;-69
2023/06/24 01:58:22;;;;;;;5.20;4.47;;;18.40;99.90;;;;;;5036334;28;20022;-69
2023/06/24 02:00:48;;;;;;;6.35;4.88;;;18.30;99.90;;;;;;5036011;28;20071;-69
2023/06/24 02:03:15;;;;;;;7.15;5.05;;;18.30;99.90;;;;;;5036110;28;20370;-69
2023/06/24 02:05:42;;;;;;;7.80;4.95;;;18.30;99.90;;;;;;5035942;28;20030;-69
2023/06/24 02:08:09;;;;;;;7.00;4.07;;;18.30;99.90;;;;;;5035065;28;20461;-69
2023/06/24 02:10:38;;;;;;;6.60;4.80;;;18.30;99.90;;;;;;5037049;28;20014;-69
2023/06/24 02:13:05;;;;;;;6.65;5.10;;;18.50;99.90;;;;;;5040202;28;20092;-69
2023/06/24 02:15:31;;;;;;;5.95;4.57;;;18.70;99.90;;;;;;5038453;28;20032;-69
2023/06/24 02:17:57;;;;;;;5.80;4.63;;;18.70;99.90;;;;;;5039950;28;20060;-69
2023/06/24 02:20:26;;;;;;;6.55;4.60;;;18.70;99.90;;;;;;5039619;28;20128;-69
2023/06/24 02:22:53;;;;;;;8.32;4.72;;;18.50;99.90;;;;;;5031680;28;20402;-69
2023/06/24 02:25:19;;;;;;;6.63;4.30;;;18.40;99.90;;;;;;5039068;28;20477;-69
2023/06/24 02:27:46;;;;;;;5.45;4.38;;;18.20;99.90;;;;;;5039942;28;20022;-69
2023/06/24 02:30:13;;;;;;;7.13;4.95;;;18.20;99.90;;;;;;5039596;28;20017;-69
2023/06/24 02:32:39;;;;;;;8.63;5.25;;;18.10;99.90;;;;;;5038129;28;20117;-69
2023/06/24 02:35:05;;;;;;;6.32;5.05;;;18.10;99.90;;;;;;5039644;28;20057;-69
2023/06/24 02:37:31;;;;;;;9.63;5.28;;;18.10;99.90;;;;;;5039719;28;20102;-69
2023/06/24 02:39:57;;;;;;;8.23;4.93;;;18.10;99.90;;;;;;5039536;28;20025;-69
2023/06/24 02:42:22;;;;;;;7.38;4.63;;;18.10;99.90;;;;;;5039516;28;20440;-69
2023/06/24 02:44:48;;;;;;;6.72;5.20;;;18.10;99.90;;;;;;5038766;28;20030;-69
2023/06/24 02:47:16;;;;;;;10.35;5.18;;;18.00;99.90;;;;;;5039482;28;20530;-69
2023/06/24 02:49:46;;;;;;;6.35;4.97;;;18.00;99.90;;;;;;5039256;28;20017;-69
2023/06/24 02:52:12;;;;;;;7.03;5.13;;;18.00;99.90;;;;;;5038867;28;20026;-69
2023/06/24 02:54:39;;;;;;;6.55;4.60;;;17.90;99.90;;;;;;5039372;28;20502;-69
2023/06/24 02:57:06;;;;;;;7.15;4.95;;;18.00;99.90;;;;;;5039294;28;20149;-69
2023/06/24 02:59:32;;;;;;;7.85;4.68;;;17.90;99.90;;;;;;5037855;28;20022;-69
2023/06/24 03:01:59;;;;;;;6.18;5.15;;;17.90;99.90;;;;;;5038641;28;20057;-69
2023/06/24 03:04:26;;;;;;;8.27;5.80;;;17.80;99.90;;;;;;5034081;28;20045;-69
2023/06/24 03:06:52;;;;;;;11.00;4.82;;;17.80;99.90;;;;;;5038612;28;20017;-69
2023/06/24 03:09:18;;;;;;;11.30;5.22;;;17.80;99.90;;;;;;5038361;28;20112;-69
2023/06/24 03:11:44;;;;;;;7.35;4.88;;;17.70;99.90;;;;;;5038832;28;20033;-69
2023/06/24 03:14:11;;;;;;;7.25;4.70;;;17.70;99.90;;;;;;5039046;28;20076;-69
2023/06/24 03:16:38;;;;;;;6.50;4.40;;;17.70;99.90;;;;;;5038966;28;20018;-69
2023/06/24 03:19:04;;;;;;;7.00;5.50;;;17.60;99.90;;;;;;5038124;28;20065;-69
2023/06/24 03:21:30;;;;;;;7.50;5.03;;;17.60;99.90;;;;;;5038289;28;20049;-69
2023/06/24 03:23:58;;;;;;;9.48;5.07;;;17.50;99.90;;;;;;5038177;28;20045;-69
2023/06/24 03:26:56;;;;;;;6.95;4.43;;;17.50;99.90;;;;;;5037289;28;20022;-69
2023/06/24 03:29:22;;;;;;;7.47;5.45;;;17.50;99.90;;;;;;5032191;28;20037;-69
2023/06/24 03:31:48;;;;;;;8.73;6.15;;;17.40;99.90;;;;;;5038651;28;20024;-69
2023/06/24 03:34:16;;;;;;;7.10;5.13;;;17.40;99.90;;;;;;5038512;28;20025;-69
2023/06/24 03:36:42;;;;;;;7.90;6.20;;;17.40;99.90;;;;;;5038436;28;20436;-69
2023/06/24 03:39:07;;;;;;;9.45;5.30;;;17.40;99.90;;;;;;5038683;28;20030;-69
2023/06/24 03:41:33;;;;;;;6.10;4.82;;;17.30;99.90;;;;;;5038189;28;20100;-69
2023/06/24 03:43:59;;;;;;;7.15;5.60;;;17.30;99.90;;;;;;5037058;28;20040;-69
2023/06/24 03:46:25;;;;;;;8.18;5.35;;;17.30;99.90;;;;;;5038414;28;20036;-69
2023/06/24 03:48:51;;;;;;;5.45;4.45;;;17.20;99.90;;;;;;5037577;28;20193;-69
2023/06/24 03:51:16;;;;;;;8.63;6.43;;;17.20;99.90;;;;;;5038394;28;20106;-69
2023/06/24 03:53:42;;;;;;;9.95;5.38;;;17.20;99.90;;;;;;5037629;28;20100;-69
2023/06/24 03:56:08;;;;;;;9.15;6.15;;;17.10;99.90;;;;;;5037856;28;20115;-69
2023/06/24 03:58:34;;;;;;;11.40;5.95;;;17.10;99.90;;;;;;5037792;28;20037;-69
2023/06/24 04:01:01;;;;;;;7.90;5.80;;;17.10;99.90;;;;;;5038157;28;20033;-69
2023/06/24 04:03:28;;;;;;;6.40;5.00;;;17.00;99.90;;;;;;5036301;28;20064;-69
2023/06/24 04:05:55;;;;;;;7.55;5.43;;;17.00;99.90;;;;;;5035919;28;20029;-69
2023/06/24 04:08:21;;;;;;;8.48;5.88;;;16.90;99.90;;;;;;5038247;28;20071;-69
2023/06/24 04:10:47;;;;;;;8.27;5.38;;;16.90;99.90;;;;;;5037143;28;20119;-70
2023/06/24 04:13:12;;;;;;;7.43;5.63;;;16.80;99.90;;;;;;5037186;28;20030;-69
2023/06/24 04:15:38;;;;;;;9.90;5.97;;;16.80;99.90;;;;;;5037778;28;20118;-69
2023/06/24 04:18:04;;;;;;;7.57;5.72;;;16.80;99.90;;;;;;5035605;28;20060;-69
2023/06/24 04:20:30;;;;;;;7.70;6.20;;;16.80;99.90;;;;;;5037792;28;20042;-69
2023/06/24 04:22:56;;;;;;;9.25;5.18;;;16.70;99.90;;;;;;5035604;28;20042;-69
2023/06/24 04:25:21;;;;;;;12.05;6.50;;;16.70;99.90;;;;;;5037941;28;20022;-69
2023/06/24 04:27:47;;;;;;;7.40;6.40;;;16.70;99.90;;;;;;5038101;28;20025;-69
2023/06/24 04:30:13;;;;;;;8.48;6.45;;;16.70;99.90;;;;;;5037883;28;20079;-68
2023/06/24 04:32:38;;;;;;;10.30;5.95;;;16.60;99.90;;;;;;5037937;28;20030;-69
2023/06/24 04:35:04;;;;;;;10.30;6.70;;;16.70;99.90;;;;;;5037739;28;20021;-69
2023/06/24 04:37:30;;;;;;;10.95;6.25;;;16.70;99.90;;;;;;5037841;28;20028;-69
2023/06/24 04:39:56;;;;;;;7.45;6.28;;;16.70;99.90;;;;;;5037743;28;20037;-69
2023/06/24 04:42:23;;;;;;;10.80;6.50;;;16.70;99.90;;;;;;5037802;28;20402;-69
2023/06/24 04:44:50;;;;;;;8.80;5.88;;;16.80;99.90;;;;;;5035101;28;20044;-69
2023/06/24 04:47:17;;;;;;;9.63;6.57;;;16.80;99.90;;;;;;5035679;28;20040;-68
2023/06/24 04:49:43;;;;;;;9.00;6.30;;;16.80;99.90;;;;;;5037063;28;20037;-69
2023/06/24 04:52:10;;;;;;;8.35;6.65;;;16.90;99.90;;;;;;5037178;28;20490;-69
2023/06/24 04:54:36;;;;;;;7.20;5.53;;;16.90;99.90;;;;;;5037012;28;20017;-69
2023/06/24 04:57:02;;;;;;;13.52;6.13;;;17.00;99.90;;;;;;5036942;28;20036;-69
2023/06/24 04:59:27;;;;;;;10.65;5.68;;;17.00;99.90;;;;;;5037065;28;20041;-69
2023/06/24 05:01:53;;;;;;;9.23;6.15;;;17.10;99.90;;;;;;5036730;28;20059;-69
2023/06/24 05:04:19;;;;;;;8.95;5.47;;;17.10;99.90;;;;;;5034912;28;20385;-69
2023/06/24 05:06:44;;;;;;;10.05;6.80;;;17.30;99.90;;;;;;5031482;28;20037;-69
2023/06/24 05:09:13;;;;;;;7.68;5.82;;;17.30;99.90;;;;;;5030655;28;20431;-68
2023/06/24 05:11:40;;;;;;;9.25;6.00;;;17.50;99.90;;;;;;5031055;28;20029;-67
2023/06/24 05:14:06;;;;;;;8.32;5.90;;;17.60;99.90;;;;;;5032907;28;20014;-67
2023/06/24 05:16:31;;;;;;;10.93;6.50;;;17.70;99.90;;;;;;5036394;28;20053;-67
2023/06/24 05:18:57;;;;;;;7.68;5.70;;;17.80;99.90;;;;;;5037015;28;20606;-67
2023/06/24 05:21:23;;;;;;;9.80;6.13;;;17.80;99.90;;;;;;5036831;28;20076;-67
2023/06/24 05:23:48;;;;;;;8.85;5.63;;;18.00;99.90;;;;;;5037314;28;20128;-67
2023/06/24 05:26:14;;;;;;;9.10;6.20;;;18.00;99.90;;;;;;5036734;28;20021;-67
2023/06/24 05:28:40;;;;;;;9.00;5.47;;;18.00;99.90;;;;;;5037108;28;20092;-66
2023/06/24 05:31:05;;;;;;;8.07;6.07;;;18.20;99.90;;;;;;5036429;28;20079;-67
2023/06/24 05:33:31;;;;;;;8.02;5.63;;;18.30;99.90;;;;;;5036941;28;20030;-67
2023/06/24 05:35:57;;;;;;;6.63;5.18;;;18.40;99.90;;;;;;5035345;28;20091;-66
2023/06/24 05:38:23;;;;;;;6.32;5.22;;;18.50;99.90;;;;;;5037043;28;20056;-66
2023/06/24 05:40:48;;;;;;;6.50;5.40;;;18.70;99.90;;;;;;5036545;28;20029;-66
2023/06/24 05:43:14;;;;;;;7.22;5.22;;;18.80;99.90;;;;;;5036813;28;20470;-66
2023/06/24 05:45:40;;;;;;;8.50;5.57;;;19.00;99.90;;;;;;5035998;28;20025;-67
2023/06/24 05:48:06;;;;;;;7.30;5.40;;;19.10;99.90;;;;;;5036655;28;20025;-67
2023/06/24 05:50:31;;;;;;;6.85;4.95;;;19.20;99.90;;;;;;5036488;28;20053;-67
2023/06/24 05:52:58;;;;;;;9.52;5.35;;;19.30;99.90;;;;;;5036625;28;20026;-67
2023/06/24 05:55:23;;;;;;;8.13;5.35;;;19.40;99.90;;;;;;5036527;28;20017;-67
2023/06/24 05:57:49;;;;;;;9.75;5.70;;;19.60;99.90;;;;;;5036414;28;20028;-67
2023/06/24 06:00:18;;;;;;;8.95;5.32;;;19.70;99.90;;;;;;5035251;28;20044;-67
2023/06/24 06:02:44;;;;;;;6.70;5.18;;;19.80;99.90;;;;;;5036210;28;20033;-67
2023/06/24 06:05:09;;;;;;;9.00;5.95;;;20.00;99.90;;;;;;5036553;28;20022;-67
2023/06/24 06:07:38;;;;;;;6.15;4.90;;;20.10;99.90;;;;;;5036337;28;20068;-67
2023/06/24 06:10:04;;;;;;;8.00;5.15;;;20.10;99.90;;;;;;5036180;28;20013;-67
2023/06/24 06:12:30;;;;;;;9.63;5.20;;;20.20;99.90;;;;;;5036373;28;20026;-67
2023/06/24 06:14:56;;;;;;;7.43;4.50;;;20.30;99.90;;;;;;5036438;28;20053;-67
2023/06/24 06:17:21;;;;;;;8.70;5.10;;;20.40;99.90;;;;;;5036028;28;20029;-66
2023/06/24 06:19:47;;;;;;;8.23;4.57;;;20.50;99.90;;;;;;5034015;28;20061;-67
2023/06/24 06:22:14;;;;;;;7.18;4.78;;;20.60;99.90;;;;;;5036533;28;20025;-67
2023/06/24 06:24:39;;;;;;;8.00;4.72;;;20.80;99.90;;;;;;5029249;28;20501;-67
2023/06/24 06:27:09;;;;;;;4.80;3.80;;;20.90;99.90;;;;;;5032943;28;20026;-67
2023/06/24 06:29:34;;;;;;;6.10;4.65;;;21.00;99.90;;;;;;5034354;28;20381;-67
2023/06/24 06:32:00;;;;;;;7.22;5.03;;;21.00;99.90;;;;;;5035078;28;20029;-67
2023/06/24 06:34:25;;;;;;;5.20;4.13;;;21.10;99.90;;;;;;5034846;28;20498;-67
2023/06/24 06:36:51;;;;;;;7.28;4.68;;;21.20;99.90;;;;;;5034212;28;20033;-66
2023/06/24 06:39:17;;;;;;;6.03;4.38;;;21.20;99.90;;;;;;5033902;28;20534;-67
2023/06/24 06:41:42;;;;;;;7.30;4.20;;;21.20;99.90;;;;;;5035451;28;20026;-66
2023/06/24 06:44:08;;;;;;;6.03;4.15;;;21.20;99.90;;;;;;5034319;28;20017;-67
2023/06/24 06:46:34;;;;;;;5.78;4.15;;;21.30;99.90;;;;;;5035310;28;20021;-66
2023/06/24 06:48:59;;;;;;;7.28;4.35;;;21.40;99.90;;;;;;5034423;28;20071;-67
2023/06/24 06:51:25;;;;;;;7.05;4.00;;;21.50;99.90;;;;;;5035387;28;20100;-67
2023/06/24 06:53:51;;;;;;;9.02;4.47;;;21.50;99.90;;;;;;5033473;28;20079;-67
2023/06/24 06:56:24;;;;;;;5.03;3.90;;;21.60;99.90;;;;;;5034922;28;20060;-66
2023/06/24 06:58:50;;;;;;;7.85;4.25;;;21.70;99.90;;;;;;5034879;28;20402;-66
2023/06/24 07:01:17;;;;;;;8.63;4.35;;;21.80;99.90;;;;;;5038629;28;20092;-67
2023/06/24 07:03:42;;;;;;;7.38;4.55;;;21.80;99.90;;;;;;5036141;28;20025;-67
2023/06/24 07:06:08;;;;;;;6.22;4.15;;;21.90;99.90;;;;;;5038266;28;20017;-67
2023/06/24 07:08:34;;;;;;;5.00;3.90;;;22.10;99.90;;;;;;5038464;28;20060;-67
2023/06/24 07:11:00;;;;;;;6.93;4.25;;;22.20;99.90;;;;;;5037756;28;20466;-66
2023/06/24 07:13:25;;;;;;;5.78;4.38;;;22.40;99.90;;;;;;5035006;28;20034;-68
2023/06/24 07:15:51;;;;;;;6.05;4.10;;;22.40;99.90;;;;;;5036413;28;20482;-67
2023/06/24 07:18:17;;;;;;;4.93;4.07;;;22.40;99.90;;;;;;5037013;28;20053;-67
2023/06/24 07:20:42;;;;;;;5.20;3.67;;;22.60;99.90;;;;;;5033715;28;20243;-67
2023/06/24 07:23:08;;;;;;;5.53;3.65;;;22.60;99.90;;;;;;5032885;28;20038;-68
2023/06/24 07:25:34;;;;;;;5.55;4.10;;;22.70;99.90;;;;;;5033774;28;20029;-67
2023/06/24 07:28:00;;;;;;;6.00;3.80;;;22.80;99.90;;;;;;5037404;28;20021;-67
2023/06/24 07:30:25;;;;;;;6.50;4.00;;;22.90;99.90;;;;;;5034130;28;20036;-67
2023/06/24 07:32:51;;;;;;;5.60;3.22;;;23.00;99.90;;;;;;5037939;28;20029;-67
2023/06/24 07:35:18;;;;;;;6.57;4.07;;;23.10;99.90;;;;;;5037166;28;20022;-68
2023/06/24 07:37:45;;;;;;;7.78;3.97;;;23.10;99.90;;;;;;5038514;28;20033;-67
2023/06/24 07:40:10;;;;;;;6.85;3.90;;;23.20;99.90;;;;;;5036178;28;20021;-67
2023/06/24 07:42:36;;;;;;;6.47;3.75;;;23.20;99.90;;;;;;5037855;28;20032;-68
2023/06/24 07:45:02;;;;;;;5.93;4.30;;;23.30;99.90;;;;;;5036620;28;20025;-68
2023/06/24 07:47:28;;;;;;;5.13;4.03;;;23.30;99.90;;;;;;5037557;28;20029;-67
2023/06/24 07:49:54;;;;;;;5.35;3.53;;;23.40;99.90;;;;;;5037818;28;20018;-67
2023/06/24 07:52:19;;;;;;;6.40;3.17;;;23.50;99.90;;;;;;5037486;28;20032;-67
2023/06/24 07:54:45;;;;;;;4.45;3.72;;;23.50;99.90;;;;;;5035711;28;20104;-68
2023/06/24 07:57:10;;;;;;;4.43;3.55;;;23.60;99.90;;;;;;5036705;28;20104;-68
2023/06/24 07:59:36;;;;;;;5.60;3.50;;;23.80;99.90;;;;;;5034043;28;20057;-67
2023/06/24 08:02:02;;;;;;;5.28;3.38;;;23.90;99.90;;;;;;5036500;28;20087;-68
2023/06/24 08:04:28;;;;;;;6.22;3.25;;;24.00;99.90;;;;;;5035380;28;20030;-67
2023/06/24 08:06:53;;;;;;;8.45;3.33;;;24.10;99.90;;;;;;5035752;28;20028;-67
2023/06/24 08:09:19;;;;;;;5.35;3.75;;;24.20;99.90;;;;;;5033408;28;20017;-67
2023/06/24 08:11:45;;;;;;;5.25;3.42;;;24.30;99.90;;;;;;5037339;28;20017;-68
2023/06/24 08:14:10;;;;;;;4.70;3.22;;;24.40;99.90;;;;;;5036417;28;20049;-68
2023/06/24 08:16:37;;;;;;;6.20;3.13;;;24.50;99.90;;;;;;5035873;28;20028;-68
2023/06/24 08:19:02;;;;;;;5.43;3.67;;;24.60;99.90;;;;;;5037059;28;20063;-67
2023/06/24 08:21:29;;;;;;;8.75;3.45;;;24.60;99.90;;;;;;5035619;28;20107;-67
2023/06/24 08:23:55;;;;;;;5.80;4.25;;;24.60;99.90;;;;;;5036399;28;20099;-68
2023/06/24 08:26:21;;;;;;;4.30;3.22;;;24.60;99.90;;;;;;5032318;28;20113;-68
2023/06/24 08:28:47;;;;;;;4.55;3.15;;;24.70;99.90;;;;;;5034581;28;20052;-68
2023/06/24 08:31:13;;;;;;;3.90;2.80;;;24.90;99.90;;;;;;5036432;28;20037;-68
2023/06/24 08:33:41;;;;;;;3.90;3.00;;;25.00;99.90;;;;;;5030926;28;20501;-68
2023/06/24 08:36:07;;;;;;;6.65;3.08;;;25.00;99.90;;;;;;5033810;28;20032;-68
2023/06/24 08:38:33;;;;;;;6.07;3.50;;;25.20;99.90;;;;;;5035089;28;20478;-68
2023/06/24 08:40:59;;;;;;;5.00;3.20;;;25.30;99.90;;;;;;5036531;28;20030;-68
2023/06/24 08:43:24;;;;;;;4.43;2.88;;;25.50;99.90;;;;;;5035938;28;20029;-68
2023/06/24 08:45:50;;;;;;;4.75;3.10;;;25.40;99.90;;;;;;5036660;28;20049;-68
2023/06/24 08:48:18;;;;;;;6.20;2.80;;;25.40;99.90;;;;;;5036705;28;20033;-68
2023/06/24 08:50:50;;;;;;;6.90;3.13;;;25.40;99.90;;;;;;5036510;28;20371;-67
2023/06/24 08:53:18;;;;;;;5.70;2.35;;;25.50;99.90;;;;;;5036176;28;20040;-67
2023/06/24 08:55:45;;;;;;;4.95;2.45;;;25.60;99.90;;;;;;5036365;28;20477;-68
2023/06/24 08:58:11;;;;;;;5.47;3.20;;;25.80;99.90;;;;;;5036455;28;20041;-68
2023/06/24 09:00:37;;;;;;;4.68;3.20;;;25.90;99.90;;;;;;5036123;28;20025;-68
2023/06/24 09:03:02;;;;;;;6.15;3.05;;;26.00;99.90;;;;;;5035755;28;20409;-68
2023/06/24 09:05:28;;;;;;;4.93;3.08;;;26.20;99.90;;;;;;5036167;28;20033;-68
2023/06/24 09:07:54;;;;;;;6.43;3.03;;;26.40;99.90;;;;;;5036264;28;20410;-68
2023/06/24 09:10:33;;;;;;;4.65;2.92;;;26.20;99.90;;;;;;5035955;28;20036;-68
2023/06/24 09:13:03;;;;;;;5.93;2.53;;;26.10;99.90;;;;;;5031778;28;20025;-67
2023/06/24 09:15:33;;;;;;;4.72;3.00;;;26.00;99.90;;;;;;5034986;28;20021;-68
2023/06/24 09:18:00;;;;;;;6.28;2.65;;;25.90;99.90;;;;;;5035607;28;20093;-67
2023/06/24 09:20:27;;;;;;;4.68;2.88;;;25.90;99.90;;;;;;5035107;28;20049;-67
2023/06/24 09:22:59;;;;;;;6.38;3.47;;;25.90;99.90;;;;;;5035676;28;20029;-69
2023/06/24 09:25:24;;;;;;;4.60;3.20;;;26.10;99.90;;;;;;5034264;28;20009;-68
2023/06/24 09:27:52;;;;;;;7.97;3.25;;;26.00;99.90;;;;;;5035796;28;20022;-69
2023/06/24 09:30:24;;;;;;;6.53;3.13;;;25.90;99.90;;;;;;5036339;28;20067;-68
2023/06/24 09:32:52;;;;;;;5.07;3.47;;;25.90;99.90;;;;;;5035967;28;20029;-70
2023/06/24 09:35:20;;;;;;;5.15;3.20;;;26.00;99.90;;;;;;5033562;28;20025;-69
2023/06/24 09:37:55;;;;;;;5.32;3.38;;;26.20;99.90;;;;;;5032065;28;20108;-69
2023/06/24 09:40:22;;;;;;;4.95;2.95;;;26.30;99.90;;;;;;5034175;28;20022;-69
2023/06/24 09:42:48;;;;;;;5.45;2.97;;;26.20;99.90;;;;;;5035328;28;20120;-69
2023/06/24 09:45:14;;;;;;;6.55;3.45;;;26.30;99.90;;;;;;5035300;28;20382;-69
2023/06/24 09:47:40;;;;;;;6.57;3.53;;;26.30;99.90;;;;;;5035430;28;20029;-69
2023/06/24 09:50:05;;;;;;;5.75;2.95;;;26.30;99.90;;;;;;5036096;28;20021;-70
2023/06/24 09:52:33;;;;;;;5.20;2.75;;;26.30;99.90;;;;;;5031305;28;20072;-69
2023/06/24 09:55:00;;;;;;;6.22;2.92;;;26.50;99.90;;;;;;5026866;28;20486;-69
2023/06/24 09:57:31;;;;;;;6.93;3.17;;;26.40;97.70;;;;;;5036713;28;20033;-69
2023/06/24 09:59:58;;;;;;;5.13;3.00;;;26.20;98.90;;;;;;5036920;28;20026;-69
2023/06/24 10:02:24;;;;;;;3.38;2.58;;;26.20;99.90;;;;;;5036233;28;20030;-69
2023/06/24 10:04:52;;;;;;;4.80;3.05;;;26.30;96.90;;;;;;5035358;28;20485;-69
2023/06/24 10:07:18;;;;;;;6.32;3.42;;;26.40;97.10;;;;;;5036572;28;20486;-69
2023/06/24 10:09:44;;;;;;;3.88;2.67;;;26.50;97.80;;;;;;5036523;28;20044;-69
2023/06/24 10:12:10;;;;;;;7.13;3.20;;;26.50;94.50;;;;;;5036464;28;20029;-69
2023/06/24 10:14:36;;;;;;;4.80;2.70;;;26.50;94.60;;;;;;5036575;28;20021;-69
2023/06/24 10:17:05;;;;;;;6.32;3.20;;;26.50;93.60;;;;;;5036245;28;20025;-69
2023/06/24 10:19:39;;;;;;;5.97;2.80;;;26.60;94.20;;;;;;5030763;28;20046;-69
2023/06/24 10:22:09;;;;;;;4.80;3.38;;;26.70;94.80;;;;;;5028655;28;20383;-69
2023/06/24 10:24:41;;;;;;;4.22;3.00;;;26.80;95.30;;;;;;5022856;28;20359;-69
2023/06/24 10:27:18;;;;;;;6.32;3.75;;;26.80;96.30;;;;;;5029106;28;20037;-69
2023/06/24 10:29:51;;;;;;;6.45;3.20;;;27.10;95.90;;;;;;5036443;28;20027;-69
2023/06/24 10:32:19;;;;;;;5.38;3.05;;;27.30;96.40;;;;;;5038144;28;20022;-69
2023/06/24 10:34:46;;;;;;;7.43;4.82;;;27.30;94.80;;;;;;5040079;28;20082;-69
2023/06/24 10:37:26;;;;;;;6.25;2.78;;;27.40;95.00;;;;;;5040323;28;20029;-69
2023/06/24 10:39:54;;;;;;;8.18;2.70;;;27.50;94.40;;;;;;5034820;28;20049;-68
2023/06/24 10:42:33;;;;;;;12.38;3.30;;;27.30;93.80;;;;;;5032611;28;20037;-69
2023/06/24 10:45:01;;;;;;;5.47;2.55;;;27.10;94.20;;;;;;5022266;28;20014;-69
2023/06/24 10:47:29;;;;;;;4.03;2.70;;;27.10;93.70;;;;;;5034561;28;20021;-69
2023/06/24 10:49:55;;;;;;;5.68;3.80;;;27.30;96.70;;;;;;5039829;28;20013;-69
2023/06/24 10:52:22;;;;;;;6.82;2.78;;;27.60;95.10;;;;;;5039905;28;20035;-69
2023/06/24 10:54:49;;;;;;;6.35;3.42;;;27.60;94.30;;;;;;5039919;28;20018;-69
2023/06/24 10:57:20;;;;;;;6.90;3.55;;;27.50;95.10;;;;;;5039694;28;20564;-69
2023/06/24 10:59:49;;;;;;;;;;;27.60;97.00;;;;;;5030245;28;20048;-67
2023/06/24 11:02:16;;;;;;;5.07;3.15;;;27.70;97.40;;;;;;5038041;28;20339;-69
2023/06/24 11:04:52;;;;;;;5.40;3.33;;;27.90;96.30;;;;;;5039852;28;20033;-69
2023/06/24 11:07:23;;;;;;;5.15;3.22;;;28.00;97.00;;;;;;5039524;28;20030;-67
2023/06/24 11:09:54;;;;;;;4.30;3.10;;;28.10;95.30;;;;;;5039642;28;20055;-67
2023/06/24 11:12:24;;;;;;;5.70;3.10;;;28.20;96.70;;;;;;5039492;28;20028;-67
2023/06/24 11:14:50;;;;;;;8.90;4.15;;;28.30;95.30;;;;;;5037192;28;20501;-67
2023/06/24 11:17:16;;;;;;;5.63;2.70;;;28.30;95.00;;;;;;5039278;28;20080;-67
2023/06/24 11:19:43;;;;;;;4.22;2.25;;;28.30;92.30;;;;;;5039240;28;20052;-67
2023/06/24 11:22:09;;;;;;;5.07;2.50;;;28.20;92.20;;;;;;5039291;28;20029;-67
2023/06/24 11:24:35;;;;;;;5.78;2.92;;;28.10;93.40;;;;;;5039285;28;20022;-67
2023/06/24 11:27:03;;;;;;;3.95;2.42;;;27.90;91.60;;;;;;5039170;28;20028;-67
2023/06/24 11:29:30;;;;;;;4.45;2.72;;;27.90;92.00;;;;;;5037920;28;20029;-67
2023/06/24 11:31:56;;;;;;;4.63;2.50;;;28.00;93.30;;;;;;5039009;28;20033;-67
2023/06/24 11:34:21;;;;;;;5.00;3.28;;;28.00;91.40;;;;;;5039097;28;20018;-67
2023/06/24 11:36:48;;;;;;;3.83;2.42;;;28.00;92.20;;;;;;5039175;28;20022;-67
2023/06/24 11:39:22;;;;;;;5.65;2.70;;;28.20;90.90;;;;;;5028545;28;20030;-67
2023/06/24 11:41:47;;;;;;;3.40;2.42;;;28.30;92.00;;;;;;5026423;28;20156;-67
2023/06/24 11:44:13;;;;;;;4.50;2.30;;;28.50;91.60;;;;;;5023555;28;20076;-67
2023/06/24 11:46:40;;;;;;;5.40;3.00;;;28.30;90.20;;;;;;5026988;28;20029;-66
2023/06/24 11:49:09;;;;;;;3.55;2.53;;;28.30;90.40;;;;;;5018997;28;20022;-68
2023/06/24 11:51:35;;;;;;;5.78;2.70;;;28.50;91.50;;;;;;5027783;28;20032;-67
2023/06/24 11:54:03;;;;;;;4.50;2.92;;;28.60;94.20;;;;;;5030082;28;20022;-67
2023/06/24 11:56:43;;;;;;;5.00;3.28;;;28.80;93.40;;;;;;5033502;28;20029;-68
2023/06/24 11:59:19;;;;;;;4.90;2.73;;;28.90;94.10;;;;;;5032018;28;20112;-67
2023/06/24 12:02:05;;;;;;;6.22;3.03;;;29.00;94.90;;;;;;5031520;28;20025;-67
2023/06/24 12:04:31;;;;;;;4.65;3.20;;;29.00;93.70;;;;;;5027123;28;20042;-68
2023/06/24 12:06:58;;;;;;;4.30;2.80;;;28.70;94.50;;;;;;5025352;28;20034;-67
2023/06/24 12:09:24;;;;;;;7.35;3.17;;;28.60;94.80;;;;;;5028196;28;20030;-67
2023/06/24 12:11:52;;;;;;;7.65;2.65;;;28.80;94.30;;;;;;5026392;28;20474;-67
2023/06/24 12:14:18;;;;;;;6.57;3.03;;;29.00;93.70;;;;;;5034634;28;20383;-67
2023/06/24 12:16:43;;;;;;;4.32;2.75;;;29.20;91.80;;;;;;5026223;28;20386;-68
2023/06/24 12:19:09;;;;;;;5.20;3.00;;;29.10;91.20;;;;;;5028326;28;20105;-67
2023/06/24 12:21:36;;;;;;;7.70;3.20;;;29.10;92.20;;;;;;5027078;28;20038;-68
2023/06/24 12:24:02;;;;;;;4.60;2.60;;;29.10;94.80;;;;;;5027610;28;20475;-67
2023/06/24 12:26:28;;;;;;;5.28;3.35;;;29.20;94.60;;;;;;5026936;28;20140;-68
2023/06/24 12:28:58;;;;;;;4.03;2.72;;;29.30;93.20;;;;;;5037315;28;20435;-67
2023/06/24 12:31:24;;;;;;;3.00;2.30;;;29.30;91.70;;;;;;5036531;28;20025;-67
2023/06/24 12:33:53;;;;;;;5.65;2.55;;;29.20;91.70;;;;;;5033191;28;20398;-67
2023/06/24 12:36:19;;;;;;;4.88;2.28;;;29.40;92.60;;;;;;5027304;28;20048;-67
2023/06/24 12:38:44;;;;;;;4.93;2.30;;;29.50;89.90;;;;;;5024643;28;20080;-68
2023/06/24 12:41:10;;;;;;;4.95;2.60;;;29.50;91.70;;;;;;5026653;28;20025;-68
2023/06/24 12:43:36;;;;;;;6.10;2.85;;;29.60;89.60;;;;;;5022450;28;20113;-68
2023/06/24 12:46:01;;;;;;;6.30;2.60;;;29.60;93.00;;;;;;5025995;28;20099;-68